PWSweather.com
Personal Weather Stations
Station Observations
WATERF01
WaterfordIE

WaterfordIE

Lat: 52.2412507, Lon: -7.1414691

Elevation: 65

Station Type: Davis Vantage Vue

www.waterfordweather.com

High Low Average
Temperature 63.6°F17.6°C 48.9°F9.4°C 56.7°F13.7°C
Dew Point 54.3°F12.4°C 44.6°F7.0°C 48.1°F8.9°C
Winds 15.0 mph 24.1 kmh Calm Calm 6.0 mph WNW9.7 kmh WNW
Wind Gusts 25.3 mph40.7 kmh -- 10.0 mph16.1 kmh
Humidity 86% 51% 74%
Pressure 30.03 in1016.9 mb 29.92 in1013.2 mb -
Precipitation 0.01 in0.3 mm - -
Hour Temp Dew Point Humidity Winds Wind Gusts Pressure Precip Precip Rate Daily Precip Total
12:00 AM 54.4°F12.4°C 48.7°F9.3°C 81% 2.3 mph NNW3.7 kmh NNW 5.8 mph9.3 kmh 30.02 in1016.6 mb - 0.00 in0.0 mm 0.00 in0.0 mm
12:10 AM 54.2°F12.3°C 48.5°F9.2°C 81% 3.5 mph NW5.6 kmh NW 4.6 mph7.4 kmh 30.02 in1016.6 mb - 0.00 in0.0 mm 0.00 in0.0 mm
12:20 AM 54.0°F12.2°C 48.6°F9.2°C 82% 3.5 mph NNW5.6 kmh NNW 6.9 mph11.1 kmh 30.02 in1016.6 mb - 0.00 in0.0 mm 0.00 in0.0 mm
12:30 AM 53.8°F12.1°C 48.4°F9.1°C 82% 3.5 mph NNW5.6 kmh NNW 4.6 mph7.4 kmh 30.02 in1016.6 mb - 0.00 in0.0 mm 0.00 in0.0 mm
12:40 AM 53.8°F12.1°C 48.4°F9.1°C 82% 4.6 mph NW7.4 kmh NW 6.9 mph11.1 kmh 30.02 in1016.6 mb - 0.00 in0.0 mm 0.00 in0.0 mm
12:50 AM 54.1°F12.3°C 48.4°F9.1°C 81% 4.6 mph NNW7.4 kmh NNW 8.1 mph13.0 kmh 30.02 in1016.6 mb - 0.00 in0.0 mm 0.00 in0.0 mm
01:00 AM 54.2°F12.3°C 48.5°F9.2°C 81% 4.6 mph NW7.4 kmh NW 8.1 mph13.0 kmh 30.01 in1016.3 mb - 0.00 in0.0 mm 0.00 in0.0 mm
01:10 AM 54.2°F12.3°C 48.5°F9.2°C 81% 5.8 mph NW9.3 kmh NW 8.1 mph13.0 kmh 30.01 in1016.3 mb - 0.00 in0.0 mm 0.00 in0.0 mm
01:20 AM 54.0°F12.2°C 48.3°F9.1°C 81% 5.8 mph NNW9.3 kmh NNW 8.1 mph13.0 kmh 30.01 in1016.3 mb - 0.00 in0.0 mm 0.00 in0.0 mm
01:30 AM 53.8°F12.1°C 48.1°F8.9°C 81% 4.6 mph NNW7.4 kmh NNW 9.2 mph14.8 kmh 30.01 in1016.3 mb - 0.00 in0.0 mm 0.00 in0.0 mm
01:40 AM 53.7°F12.1°C 48.0°F8.9°C 81% 4.6 mph NNW7.4 kmh NNW 5.8 mph9.3 kmh 30.01 in1016.3 mb - 0.00 in0.0 mm 0.00 in0.0 mm
01:50 AM 53.4°F11.9°C 48.0°F8.9°C 82% 2.3 mph NW3.7 kmh NW 4.6 mph7.4 kmh 30.01 in1016.3 mb - 0.00 in0.0 mm 0.00 in0.0 mm
02:00 AM 53.3°F11.8°C 47.9°F8.8°C 82% 3.5 mph NNW5.6 kmh NNW 6.9 mph11.1 kmh 30.00 in1015.9 mb - 0.00 in0.0 mm 0.00 in0.0 mm
02:10 AM 53.3°F11.8°C 47.9°F8.8°C 82% 3.5 mph NW5.6 kmh NW 5.8 mph9.3 kmh 30.00 in1015.9 mb - 0.00 in0.0 mm 0.00 in0.0 mm
02:20 AM 53.4°F11.9°C 47.7°F8.7°C 81% 5.8 mph NNW9.3 kmh NNW 9.2 mph14.8 kmh 30.00 in1015.9 mb - 0.00 in0.0 mm 0.00 in0.0 mm
02:30 AM 53.4°F11.9°C 47.7°F8.7°C 81% 4.6 mph NW7.4 kmh NW 8.1 mph13.0 kmh 30.00 in1015.9 mb - 0.00 in0.0 mm 0.00 in0.0 mm
02:40 AM 53.2°F11.8°C 47.5°F8.6°C 81% 2.3 mph NW3.7 kmh NW 5.8 mph9.3 kmh 30.00 in1015.9 mb - 0.00 in0.0 mm 0.00 in0.0 mm
02:50 AM 52.9°F11.6°C 47.2°F8.4°C 81% 4.6 mph NNW7.4 kmh NNW 5.8 mph9.3 kmh 29.99 in1015.6 mb - 0.00 in0.0 mm 0.00 in0.0 mm
03:00 AM 52.7°F11.5°C 47.0°F8.3°C 81% 4.6 mph NW7.4 kmh NW 6.9 mph11.1 kmh 29.99 in1015.6 mb - 0.00 in0.0 mm 0.00 in0.0 mm
03:10 AM 52.6°F11.4°C 47.3°F8.5°C 82% 3.5 mph NW5.6 kmh NW 5.8 mph9.3 kmh 29.99 in1015.6 mb - 0.00 in0.0 mm 0.00 in0.0 mm
03:20 AM 52.4°F11.3°C 47.1°F8.4°C 82% 2.3 mph NW3.7 kmh NW 5.8 mph9.3 kmh 29.98 in1015.2 mb - 0.00 in0.0 mm 0.00 in0.0 mm
03:30 AM 52.3°F11.3°C 47.0°F8.3°C 82% 2.3 mph NW3.7 kmh NW 4.6 mph7.4 kmh 29.98 in1015.2 mb - 0.00 in0.0 mm 0.00 in0.0 mm
03:40 AM 52.1°F11.2°C 46.7°F8.2°C 82% 1.2 mph WNW1.9 kmh WNW 2.3 mph3.7 kmh 29.98 in1015.2 mb - 0.00 in0.0 mm 0.00 in0.0 mm
03:50 AM 51.8°F11.0°C 46.5°F8.1°C 82% Calm Calm 2.3 mph3.7 kmh 29.98 in1015.2 mb - 0.00 in0.0 mm 0.00 in0.0 mm
04:00 AM 51.4°F10.8°C 46.4°F8.0°C 83% Calm Calm -- 29.98 in1015.2 mb - 0.00 in0.0 mm 0.00 in0.0 mm
04:10 AM 50.9°F10.5°C 46.2°F7.9°C 84% Calm Calm -- 29.98 in1015.2 mb - 0.00 in0.0 mm 0.00 in0.0 mm
04:20 AM 50.4°F10.2°C 45.7°F7.6°C 84% Calm Calm -- 29.97 in1014.9 mb - 0.00 in0.0 mm 0.00 in0.0 mm
04:30 AM 49.8°F9.9°C 45.5°F7.5°C 85% Calm Calm -- 29.97 in1014.9 mb - 0.00 in0.0 mm 0.00 in0.0 mm
04:40 AM 49.3°F9.6°C 45.0°F7.2°C 85% Calm Calm -- 29.97 in1014.9 mb - 0.00 in0.0 mm 0.00 in0.0 mm
04:50 AM 48.9°F9.4°C 44.6°F7.0°C 85% Calm Calm -- 29.97 in1014.9 mb - 0.00 in0.0 mm 0.00 in0.0 mm
05:00 AM 49.6°F9.8°C 45.6°F7.6°C 86% 1.2 mph WNW1.9 kmh WNW 2.3 mph3.7 kmh 29.98 in1015.2 mb - 0.00 in0.0 mm 0.00 in0.0 mm
05:10 AM 50.2°F10.1°C 46.2°F7.9°C 86% Calm Calm -- 29.98 in1015.2 mb - 0.00 in0.0 mm 0.00 in0.0 mm
05:20 AM 50.7°F10.4°C 46.3°F7.9°C 85% Calm Calm -- 29.97 in1014.9 mb - 0.00 in0.0 mm 0.00 in0.0 mm
05:30 AM 50.9°F10.5°C 46.3°F7.9°C 84% Calm Calm 1.2 mph1.9 kmh 29.97 in1014.9 mb - 0.00 in0.0 mm 0.00 in0.0 mm
05:40 AM 50.5°F10.3°C 45.9°F7.7°C 84% Calm Calm -- 29.97 in1014.9 mb - 0.00 in0.0 mm 0.00 in0.0 mm
05:50 AM 50.9°F10.5°C 46.5°F8.1°C 85% Calm Calm -- 29.97 in1014.9 mb - 0.00 in0.0 mm 0.00 in0.0 mm
06:00 AM 51.0°F10.6°C 46.4°F8.0°C 84% Calm Calm -- 29.96 in1014.6 mb - 0.00 in0.0 mm 0.00 in0.0 mm
06:10 AM 51.0°F10.6°C 46.6°F8.1°C 85% Calm Calm -- 29.96 in1014.6 mb - 0.00 in0.0 mm 0.00 in0.0 mm
06:20 AM 50.9°F10.5°C 46.6°F8.1°C 85% Calm Calm -- 29.97 in1014.9 mb - 0.00 in0.0 mm 0.00 in0.0 mm
06:30 AM 50.8°F10.4°C 46.5°F8.1°C 85% 1.2 mph NW1.9 kmh NW 2.3 mph3.7 kmh 29.97 in1014.9 mb - 0.00 in0.0 mm 0.00 in0.0 mm
06:40 AM 50.7°F10.4°C 46.4°F8.0°C 85% Calm Calm -- 29.96 in1014.6 mb - 0.00 in0.0 mm 0.00 in0.0 mm
06:50 AM 50.9°F10.5°C 46.6°F8.1°C 85% Calm Calm -- 29.96 in1014.6 mb - 0.00 in0.0 mm 0.00 in0.0 mm
07:00 AM 51.2°F10.7°C 46.8°F8.2°C 85% Calm Calm -- 29.97 in1014.9 mb - 0.00 in0.0 mm 0.00 in0.0 mm
07:10 AM 51.5°F10.8°C 47.5°F8.6°C 86% Calm Calm -- 29.96 in1014.6 mb - 0.00 in0.0 mm 0.00 in0.0 mm
07:20 AM 52.2°F11.2°C 48.1°F8.9°C 86% 2.3 mph W3.7 kmh W 2.3 mph3.7 kmh 29.95 in1014.2 mb - 0.00 in0.0 mm 0.00 in0.0 mm
07:30 AM 52.9°F11.6°C 48.8°F9.3°C 86% 4.6 mph SW7.4 kmh SW 8.1 mph13.0 kmh 29.95 in1014.2 mb - 0.00 in0.0 mm 0.00 in0.0 mm
07:40 AM 53.6°F12.0°C 49.5°F9.7°C 86% 3.5 mph W5.6 kmh W 5.8 mph9.3 kmh 29.95 in1014.2 mb - 0.00 in0.0 mm 0.00 in0.0 mm
07:50 AM 54.2°F12.3°C 49.5°F9.7°C 84% 4.6 mph NW7.4 kmh NW 6.9 mph11.1 kmh 29.95 in1014.2 mb - 0.00 in0.0 mm 0.00 in0.0 mm
08:00 AM 54.8°F12.7°C 49.7°F9.8°C 83% 5.8 mph W9.3 kmh W 8.1 mph13.0 kmh 29.95 in1014.2 mb - 0.00 in0.0 mm 0.00 in0.0 mm
08:10 AM 55.2°F12.9°C 49.5°F9.7°C 81% 4.6 mph W7.4 kmh W 6.9 mph11.1 kmh 29.95 in1014.2 mb - 0.00 in0.0 mm 0.00 in0.0 mm
08:20 AM 55.4°F13.0°C 49.7°F9.8°C 81% 5.8 mph W9.3 kmh W 11.5 mph18.5 kmh 29.95 in1014.2 mb - 0.00 in0.0 mm 0.00 in0.0 mm
08:30 AM 55.7°F13.2°C 49.6°F9.8°C 80% 6.9 mph WSW11.1 kmh WSW 11.5 mph18.5 kmh 29.94 in1013.9 mb - 0.00 in0.0 mm 0.00 in0.0 mm
08:40 AM 56.1°F13.4°C 50.0°F10.0°C 80% 6.9 mph WNW11.1 kmh WNW 6.9 mph11.1 kmh 29.94 in1013.9 mb - 0.00 in0.0 mm 0.00 in0.0 mm
08:50 AM 56.8°F13.8°C 50.7°F10.4°C 80% 9.2 mph W14.8 kmh W 15.0 mph24.1 kmh 29.94 in1013.9 mb - 0.00 in0.0 mm 0.00 in0.0 mm
09:00 AM 56.7°F13.7°C 49.9°F9.9°C 78% 5.8 mph WNW9.3 kmh WNW 9.2 mph14.8 kmh 29.94 in1013.9 mb - 0.00 in0.0 mm 0.00 in0.0 mm
09:10 AM 57.0°F13.9°C 50.6°F10.3°C 79% 5.8 mph W9.3 kmh W 9.2 mph14.8 kmh 29.94 in1013.9 mb - 0.00 in0.0 mm 0.00 in0.0 mm
09:20 AM 57.4°F14.1°C 50.9°F10.5°C 79% 6.9 mph W11.1 kmh W 13.8 mph22.2 kmh 29.94 in1013.9 mb - 0.00 in0.0 mm 0.00 in0.0 mm
09:30 AM 58.1°F14.5°C 51.6°F10.9°C 79% 6.9 mph WNW11.1 kmh WNW 12.7 mph20.4 kmh 29.93 in1013.5 mb - 0.00 in0.0 mm 0.00 in0.0 mm
09:40 AM 58.4°F14.7°C 51.9°F11.1°C 79% 6.9 mph WNW11.1 kmh WNW 12.7 mph20.4 kmh 29.93 in1013.5 mb - 0.00 in0.0 mm 0.00 in0.0 mm
09:50 AM 58.3°F14.6°C 51.8°F11.0°C 79% 8.1 mph WSW13.0 kmh WSW 12.7 mph20.4 kmh 29.93 in1013.5 mb - 0.00 in0.0 mm 0.00 in0.0 mm
10:00 AM 58.6°F14.8°C 52.5°F11.4°C 80% 6.9 mph WNW11.1 kmh WNW 11.5 mph18.5 kmh 29.93 in1013.5 mb - 0.00 in0.0 mm 0.00 in0.0 mm
10:10 AM 60.3°F15.7°C 53.4°F11.9°C 78% 9.2 mph NNW14.8 kmh NNW 13.8 mph22.2 kmh 29.93 in1013.5 mb - 0.00 in0.0 mm 0.00 in0.0 mm
10:20 AM 60.6°F15.9°C 53.0°F11.7°C 76% 4.6 mph W7.4 kmh W 8.1 mph13.0 kmh 29.93 in1013.5 mb - 0.00 in0.0 mm 0.00 in0.0 mm
10:30 AM 60.2°F15.7°C 53.3°F11.8°C 78% 3.5 mph W5.6 kmh W 5.8 mph9.3 kmh 29.93 in1013.5 mb - 0.00 in0.0 mm 0.00 in0.0 mm
10:40 AM 60.4°F15.8°C 53.5°F11.9°C 78% 5.8 mph WSW9.3 kmh WSW 12.7 mph20.4 kmh 29.92 in1013.2 mb - 0.00 in0.0 mm 0.00 in0.0 mm
10:50 AM 60.7°F15.9°C 53.8°F12.1°C 78% 5.8 mph W9.3 kmh W 8.1 mph13.0 kmh 29.92 in1013.2 mb - 0.00 in0.0 mm 0.00 in0.0 mm
11:00 AM 60.2°F15.7°C 54.3°F12.4°C 81% 5.8 mph W9.3 kmh W 11.5 mph18.5 kmh 29.92 in1013.2 mb - 0.00 in0.0 mm 0.00 in0.0 mm
11:10 AM 59.2°F15.1°C 54.0°F12.2°C 83% 6.9 mph WNW11.1 kmh WNW 9.2 mph14.8 kmh 29.93 in1013.5 mb - 0.00 in0.0 mm 0.00 in0.0 mm
11:20 AM 58.5°F14.7°C 53.7°F12.1°C 84% 9.2 mph WNW14.8 kmh WNW 15.0 mph24.1 kmh 29.93 in1013.5 mb - 0.00 in0.0 mm 0.00 in0.0 mm
11:30 AM 58.1°F14.5°C 52.6°F11.4°C 82% 8.1 mph WNW13.0 kmh WNW 11.5 mph18.5 kmh 29.93 in1013.5 mb - 0.00 in0.0 mm 0.00 in0.0 mm
11:40 AM 59.3°F15.2°C 53.8°F12.1°C 82% 6.9 mph NW11.1 kmh NW 13.8 mph22.2 kmh 29.93 in1013.5 mb - 0.00 in0.0 mm 0.00 in0.0 mm
11:50 AM 59.9°F15.5°C 53.0°F11.7°C 78% 10.4 mph NW16.7 kmh NW 12.7 mph20.4 kmh 29.93 in1013.5 mb - 0.00 in0.0 mm 0.00 in0.0 mm
12:00 PM 60.7°F15.9°C 53.1°F11.7°C 76% 11.5 mph NW18.5 kmh NW 16.1 mph25.9 kmh 29.93 in1013.5 mb - 0.00 in0.0 mm 0.00 in0.0 mm
12:10 PM 61.6°F16.4°C 52.1°F11.2°C 71% 10.4 mph NW16.7 kmh NW 16.1 mph25.9 kmh 29.93 in1013.5 mb - 0.00 in0.0 mm 0.00 in0.0 mm
12:20 PM 61.3°F16.3°C 50.2°F10.1°C 67% 11.5 mph WNW18.5 kmh WNW 13.8 mph22.2 kmh 29.93 in1013.5 mb - 0.00 in0.0 mm 0.00 in0.0 mm
12:30 PM 61.9°F16.6°C 50.4°F10.2°C 66% 10.4 mph NW16.7 kmh NW 20.7 mph33.3 kmh 29.93 in1013.5 mb - 0.01 in0.3 mm 0.01 in0.3 mm
12:40 PM 61.8°F16.6°C 48.2°F9.0°C 61% 11.5 mph NW18.5 kmh NW 21.9 mph35.2 kmh 29.94 in1013.9 mb - 0.01 in0.3 mm 0.01 in0.3 mm
12:50 PM 62.1°F16.7°C 47.6°F8.7°C 59% 10.4 mph NW16.7 kmh NW 19.6 mph31.5 kmh 29.94 in1013.9 mb - 0.01 in0.3 mm 0.01 in0.3 mm
01:00 PM 62.3°F16.8°C 47.8°F8.8°C 59% 11.5 mph WNW18.5 kmh WNW 18.4 mph29.6 kmh 29.94 in1013.9 mb - 0.01 in0.3 mm 0.01 in0.3 mm
01:10 PM 63.0°F17.2°C 48.4°F9.1°C 59% 10.4 mph NW16.7 kmh NW 16.1 mph25.9 kmh 29.94 in1013.9 mb - 0.01 in0.3 mm 0.01 in0.3 mm
01:20 PM 63.3°F17.4°C 47.3°F8.5°C 56% 10.4 mph WNW16.7 kmh WNW 18.4 mph29.6 kmh 29.94 in1013.9 mb - 0.01 in0.3 mm 0.01 in0.3 mm
01:30 PM 63.6°F17.6°C 47.6°F8.7°C 56% 12.7 mph NW20.4 kmh NW 16.1 mph25.9 kmh 29.93 in1013.5 mb - 0.00 in0.0 mm 0.01 in0.3 mm
01:40 PM 62.6°F17.0°C 45.7°F7.6°C 54% 10.4 mph NW16.7 kmh NW 23.0 mph37.0 kmh 29.93 in1013.5 mb - 0.00 in0.0 mm 0.01 in0.3 mm
01:50 PM 63.4°F17.4°C 46.0°F7.8°C 53% 10.4 mph NW16.7 kmh NW 19.6 mph31.5 kmh 29.94 in1013.9 mb - 0.00 in0.0 mm 0.01 in0.3 mm
02:00 PM 63.5°F17.5°C 45.6°F7.6°C 52% 10.4 mph NW16.7 kmh NW 13.8 mph22.2 kmh 29.94 in1013.9 mb - 0.00 in0.0 mm 0.01 in0.3 mm
02:10 PM 62.7°F17.1°C 45.3°F7.4°C 53% 10.4 mph WNW16.7 kmh WNW 12.7 mph20.4 kmh 29.94 in1013.9 mb - 0.00 in0.0 mm 0.01 in0.3 mm
02:20 PM 63.2°F17.3°C 44.8°F7.1°C 51% 15.0 mph NW24.1 kmh NW 25.3 mph40.7 kmh 29.94 in1013.9 mb - 0.00 in0.0 mm 0.01 in0.3 mm
02:30 PM 63.3°F17.4°C 44.9°F7.2°C 51% 11.5 mph NW18.5 kmh NW 23.0 mph37.0 kmh 29.94 in1013.9 mb - 0.00 in0.0 mm 0.01 in0.3 mm
02:40 PM 63.0°F17.2°C 45.6°F7.6°C 53% 10.4 mph NW16.7 kmh NW 16.1 mph25.9 kmh 29.95 in1014.2 mb - 0.00 in0.0 mm 0.01 in0.3 mm
02:50 PM 63.0°F17.2°C 46.0°F7.8°C 54% 8.1 mph WNW13.0 kmh WNW 15.0 mph24.1 kmh 29.95 in1014.2 mb - 0.00 in0.0 mm 0.01 in0.3 mm
03:00 PM 62.8°F17.1°C 46.8°F8.2°C 56% 12.7 mph NW20.4 kmh NW 16.1 mph25.9 kmh 29.95 in1014.2 mb - 0.00 in0.0 mm 0.01 in0.3 mm
03:10 PM 62.8°F17.1°C 45.4°F7.4°C 53% 13.8 mph NW22.2 kmh NW 20.7 mph33.3 kmh 29.95 in1014.2 mb - 0.00 in0.0 mm 0.01 in0.3 mm
03:20 PM 62.8°F17.1°C 45.4°F7.4°C 53% 9.2 mph NW14.8 kmh NW 16.1 mph25.9 kmh 29.95 in1014.2 mb - 0.00 in0.0 mm 0.01 in0.3 mm
03:30 PM 63.2°F17.3°C 45.8°F7.7°C 53% 11.5 mph NW18.5 kmh NW 19.6 mph31.5 kmh 29.95 in1014.2 mb - 0.00 in0.0 mm 0.01 in0.3 mm
03:40 PM 63.2°F17.3°C 45.8°F7.7°C 53% 10.4 mph NW16.7 kmh NW 16.1 mph25.9 kmh 29.95 in1014.2 mb - 0.00 in0.0 mm 0.01 in0.3 mm
03:50 PM 63.5°F17.5°C 45.6°F7.6°C 52% 8.1 mph NW13.0 kmh NW 16.1 mph25.9 kmh 29.95 in1014.2 mb - 0.00 in0.0 mm 0.01 in0.3 mm
04:00 PM 63.3°F17.4°C 45.4°F7.4°C 52% 9.2 mph WNW14.8 kmh WNW 11.5 mph18.5 kmh 29.95 in1014.2 mb - 0.00 in0.0 mm 0.01 in0.3 mm
04:10 PM 63.4°F17.4°C 45.5°F7.5°C 52% 10.4 mph WNW16.7 kmh WNW 16.1 mph25.9 kmh 29.95 in1014.2 mb - 0.00 in0.0 mm 0.01 in0.3 mm
04:20 PM 63.3°F17.4°C 45.8°F7.7°C 53% 10.4 mph NW16.7 kmh NW 21.9 mph35.2 kmh 29.95 in1014.2 mb - 0.00 in0.0 mm 0.01 in0.3 mm
04:30 PM 62.5°F16.9°C 46.1°F7.8°C 55% 5.8 mph NW9.3 kmh NW 8.1 mph13.0 kmh 29.95 in1014.2 mb - 0.00 in0.0 mm 0.01 in0.3 mm
04:40 PM 62.6°F17.0°C 46.2°F7.9°C 55% 9.2 mph NW14.8 kmh NW 19.6 mph31.5 kmh 29.96 in1014.6 mb - 0.00 in0.0 mm 0.01 in0.3 mm
04:50 PM 62.9°F17.2°C 46.5°F8.1°C 55% 8.1 mph WNW13.0 kmh WNW 13.8 mph22.2 kmh 29.96 in1014.6 mb - 0.00 in0.0 mm 0.01 in0.3 mm
05:00 PM 63.1°F17.3°C 46.2°F7.9°C 54% 8.1 mph WNW13.0 kmh WNW 11.5 mph18.5 kmh 29.96 in1014.6 mb - 0.00 in0.0 mm 0.01 in0.3 mm
05:10 PM 62.7°F17.1°C 45.9°F7.7°C 54% 10.4 mph WNW16.7 kmh WNW 16.1 mph25.9 kmh 29.96 in1014.6 mb - 0.00 in0.0 mm 0.01 in0.3 mm
05:20 PM 62.4°F16.9°C 46.5°F8.1°C 56% 2.3 mph WNW3.7 kmh WNW 8.1 mph13.0 kmh 29.97 in1014.9 mb - 0.00 in0.0 mm 0.01 in0.3 mm
05:30 PM 62.1°F16.7°C 45.7°F7.6°C 55% 5.8 mph NW9.3 kmh NW 9.2 mph14.8 kmh 29.97 in1014.9 mb - 0.00 in0.0 mm 0.01 in0.3 mm
05:40 PM 62.1°F16.7°C 45.7°F7.6°C 55% 8.1 mph NW13.0 kmh NW 13.8 mph22.2 kmh 29.97 in1014.9 mb - 0.00 in0.0 mm 0.01 in0.3 mm
05:50 PM 61.8°F16.6°C 46.4°F8.0°C 57% 9.2 mph WNW14.8 kmh WNW 13.8 mph22.2 kmh 29.98 in1015.2 mb - 0.00 in0.0 mm 0.01 in0.3 mm
06:00 PM 61.3°F16.3°C 47.3°F8.5°C 60% 10.4 mph NW16.7 kmh NW 13.8 mph22.2 kmh 29.98 in1015.2 mb - 0.00 in0.0 mm 0.01 in0.3 mm
06:10 PM 60.8°F16.0°C 47.7°F8.7°C 62% 9.2 mph WNW14.8 kmh WNW 13.8 mph22.2 kmh 29.98 in1015.2 mb - 0.00 in0.0 mm 0.01 in0.3 mm
06:20 PM 60.8°F16.0°C 47.7°F8.7°C 62% 9.2 mph NW14.8 kmh NW 13.8 mph22.2 kmh 29.98 in1015.2 mb - 0.00 in0.0 mm 0.01 in0.3 mm
06:30 PM 60.2°F15.7°C 48.0°F8.9°C 64% 5.8 mph NW9.3 kmh NW 9.2 mph14.8 kmh 29.98 in1015.2 mb - 0.00 in0.0 mm 0.01 in0.3 mm
06:40 PM 59.4°F15.2°C 48.0°F8.9°C 66% 6.9 mph WNW11.1 kmh WNW 11.5 mph18.5 kmh 29.99 in1015.6 mb - 0.00 in0.0 mm 0.01 in0.3 mm
06:50 PM 58.9°F14.9°C 48.4°F9.1°C 68% 5.8 mph WNW9.3 kmh WNW 11.5 mph18.5 kmh 29.99 in1015.6 mb - 0.00 in0.0 mm 0.01 in0.3 mm
07:00 PM 58.3°F14.6°C 48.6°F9.2°C 70% 9.2 mph NW14.8 kmh NW 18.4 mph29.6 kmh 29.99 in1015.6 mb - 0.00 in0.0 mm 0.01 in0.3 mm
07:10 PM 57.8°F14.3°C 48.1°F8.9°C 70% 8.1 mph NW13.0 kmh NW 13.8 mph22.2 kmh 30.00 in1015.9 mb - 0.00 in0.0 mm 0.01 in0.3 mm
07:20 PM 57.6°F14.2°C 47.9°F8.8°C 70% 6.9 mph NW11.1 kmh NW 11.5 mph18.5 kmh 30.00 in1015.9 mb - 0.00 in0.0 mm 0.01 in0.3 mm
07:30 PM 57.1°F13.9°C 48.2°F9.0°C 72% 9.2 mph NW14.8 kmh NW 11.5 mph18.5 kmh 30.00 in1015.9 mb - 0.00 in0.0 mm 0.01 in0.3 mm
07:40 PM 56.7°F13.7°C 48.5°F9.2°C 74% 5.8 mph NW9.3 kmh NW 9.2 mph14.8 kmh 30.00 in1015.9 mb - 0.00 in0.0 mm 0.01 in0.3 mm
07:50 PM 56.3°F13.5°C 48.8°F9.3°C 76% 8.1 mph NW13.0 kmh NW 12.7 mph20.4 kmh 30.01 in1016.3 mb - 0.00 in0.0 mm 0.01 in0.3 mm
08:00 PM 55.7°F13.2°C 48.9°F9.4°C 78% 4.6 mph WNW7.4 kmh WNW 8.1 mph13.0 kmh 30.01 in1016.3 mb - 0.00 in0.0 mm 0.01 in0.3 mm
08:10 PM 55.3°F12.9°C 48.9°F9.4°C 79% 5.8 mph WNW9.3 kmh WNW 9.2 mph14.8 kmh 30.01 in1016.3 mb - 0.00 in0.0 mm 0.01 in0.3 mm
08:20 PM 55.1°F12.8°C 48.7°F9.3°C 79% 5.8 mph NW9.3 kmh NW 9.2 mph14.8 kmh 30.01 in1016.3 mb - 0.00 in0.0 mm 0.01 in0.3 mm
08:30 PM 54.9°F12.7°C 48.8°F9.3°C 80% 4.6 mph WNW7.4 kmh WNW 6.9 mph11.1 kmh 30.01 in1016.3 mb - 0.00 in0.0 mm 0.01 in0.3 mm
08:40 PM 54.9°F12.7°C 48.5°F9.2°C 79% 4.6 mph WNW7.4 kmh WNW 8.1 mph13.0 kmh 30.02 in1016.6 mb - 0.00 in0.0 mm 0.01 in0.3 mm
08:50 PM 55.0°F12.8°C 48.3°F9.1°C 78% 3.5 mph WNW5.6 kmh WNW 8.1 mph13.0 kmh 30.02 in1016.6 mb - 0.00 in0.0 mm 0.01 in0.3 mm
09:00 PM 54.9°F12.7°C 47.8°F8.8°C 77% 5.8 mph NW9.3 kmh NW 11.5 mph18.5 kmh 30.02 in1016.6 mb - 0.00 in0.0 mm 0.01 in0.3 mm
09:10 PM 54.9°F12.7°C 47.5°F8.6°C 76% 4.6 mph NW7.4 kmh NW 8.1 mph13.0 kmh 30.02 in1016.6 mb - 0.00 in0.0 mm 0.01 in0.3 mm
09:20 PM 54.7°F12.6°C 47.6°F8.7°C 77% 4.6 mph NW7.4 kmh NW 8.1 mph13.0 kmh 30.02 in1016.6 mb - 0.00 in0.0 mm 0.01 in0.3 mm
09:30 PM 54.7°F12.6°C 47.6°F8.7°C 77% 5.8 mph WNW9.3 kmh WNW 11.5 mph18.5 kmh 30.02 in1016.6 mb - 0.00 in0.0 mm 0.01 in0.3 mm
09:40 PM 54.6°F12.6°C 47.5°F8.6°C 77% 5.8 mph WNW9.3 kmh WNW 9.2 mph14.8 kmh 30.02 in1016.6 mb - 0.00 in0.0 mm 0.01 in0.3 mm
09:50 PM 54.5°F12.5°C 47.4°F8.6°C 77% 5.8 mph WNW9.3 kmh WNW 9.2 mph14.8 kmh 30.02 in1016.6 mb - 0.00 in0.0 mm 0.01 in0.3 mm
10:00 PM 54.5°F12.5°C 47.8°F8.8°C 78% 5.8 mph WNW9.3 kmh WNW 8.1 mph13.0 kmh 30.02 in1016.6 mb - 0.00 in0.0 mm 0.01 in0.3 mm
10:10 PM 54.3°F12.4°C 47.9°F8.8°C 79% 4.6 mph WNW7.4 kmh WNW 9.2 mph14.8 kmh 30.03 in1016.9 mb - 0.00 in0.0 mm 0.01 in0.3 mm
10:20 PM 54.4°F12.4°C 48.0°F8.9°C 79% 5.8 mph WNW9.3 kmh WNW 9.2 mph14.8 kmh 30.03 in1016.9 mb - 0.00 in0.0 mm 0.01 in0.3 mm
10:30 PM 54.3°F12.4°C 47.9°F8.8°C 79% 4.6 mph WNW7.4 kmh WNW 8.1 mph13.0 kmh 30.03 in1016.9 mb - 0.00 in0.0 mm 0.01 in0.3 mm
10:40 PM 54.4°F12.4°C 48.3°F9.1°C 80% 4.6 mph NW7.4 kmh NW 9.2 mph14.8 kmh 30.03 in1016.9 mb - 0.00 in0.0 mm 0.01 in0.3 mm
10:50 PM 54.5°F12.5°C 48.1°F8.9°C 79% 4.6 mph NW7.4 kmh NW 5.8 mph9.3 kmh 30.03 in1016.9 mb - 0.00 in0.0 mm 0.01 in0.3 mm
11:00 PM 54.2°F12.3°C 48.2°F9.0°C 80% 4.6 mph NW7.4 kmh NW 8.1 mph13.0 kmh 30.03 in1016.9 mb - 0.00 in0.0 mm 0.06 in1.5 mm
11:10 PM 54.1°F12.3°C 48.1°F8.9°C 80% 3.5 mph WNW5.6 kmh WNW 5.8 mph9.3 kmh 30.03 in1016.9 mb - 0.00 in0.0 mm 0.06 in1.5 mm
11:20 PM 53.8°F12.1°C 48.1°F8.9°C 81% 3.5 mph NW5.6 kmh NW 5.8 mph9.3 kmh 30.03 in1016.9 mb - 0.00 in0.0 mm 0.06 in1.5 mm
11:30 PM 53.5°F11.9°C 47.8°F8.8°C 81% 5.8 mph NW9.3 kmh NW 8.1 mph13.0 kmh 30.03 in1016.9 mb - 0.00 in0.0 mm 0.06 in1.5 mm
11:40 PM 53.4°F11.9°C 47.7°F8.7°C 81% 3.5 mph WNW5.6 kmh WNW 5.8 mph9.3 kmh 30.02 in1016.6 mb - 0.00 in0.0 mm 0.06 in1.5 mm
11:50 PM 53.4°F11.9°C 47.7°F8.7°C 81% 4.6 mph NW7.4 kmh NW 6.9 mph11.1 kmh 30.03 in1016.9 mb - 0.00 in0.0 mm 0.06 in1.5 mm